Time;durP1;ratioP1;P1;durP2;ratioP2;P2;SDS_P1;SDS_P2;PMS_P1;PMS_P2;Temp;Humidity;BMP_temperature;BMP_pressure;BME280_temperature;BME280_humidity;BME280_pressure;Samples;Min_cycle;Max_cycle;Signal;HPM_P1;HPM_P2
2022/10/17 00:01:53;;;;;;;8.27;3.30;;;13.00;99.90;;;;;;4957294;28;20047;-59
2022/10/17 00:04:19;;;;;;;8.63;3.08;;;13.00;99.90;;;;;;4956112;28;20154;-60
2022/10/17 00:06:45;;;;;;;12.65;3.00;;;13.10;99.90;;;;;;4957548;28;20130;-58
2022/10/17 00:09:11;;;;;;;11.43;3.40;;;13.10;99.90;;;;;;4955443;28;20117;-59
2022/10/17 00:11:36;;;;;;;11.18;3.33;;;13.10;99.90;;;;;;4957288;28;20078;-59
2022/10/17 00:14:03;;;;;;;10.88;3.47;;;13.10;99.90;;;;;;4955541;28;20052;-59
2022/10/17 00:16:32;;;;;;;9.90;3.10;;;13.10;99.90;;;;;;4954074;28;20455;-59
2022/10/17 00:18:58;;;;;;;11.65;3.40;;;13.10;99.90;;;;;;4957199;28;20058;-59
2022/10/17 00:21:25;;;;;;;13.82;4.25;;;13.10;99.90;;;;;;4953271;28;20047;-59
2022/10/17 00:23:52;;;;;;;11.57;4.15;;;13.10;99.90;;;;;;4952842;28;20066;-59
2022/10/17 00:26:19;;;;;;;17.77;7.03;;;13.10;99.90;;;;;;4963164;28;20051;-58
2022/10/17 00:28:50;;;;;;;17.52;7.95;;;13.10;99.90;;;;;;4958442;28;20485;-60
2022/10/17 00:31:17;;;;;;;22.00;8.40;;;13.10;99.90;;;;;;4954284;28;20054;-59
2022/10/17 00:33:44;;;;;;;18.85;7.68;;;13.10;99.90;;;;;;4956769;28;20051;-60
2022/10/17 00:36:18;;;;;;;17.10;6.78;;;13.10;99.90;;;;;;4952684;28;20043;-59
2022/10/17 00:38:47;;;;;;;15.70;6.03;;;13.10;99.90;;;;;;4962577;28;20047;-59
2022/10/17 00:41:16;;;;;;;15.82;6.05;;;13.10;99.90;;;;;;4955910;28;20129;-59
2022/10/17 00:43:57;;;;;;;15.52;6.20;;;13.10;99.90;;;;;;4954712;28;20070;-59
2022/10/17 00:46:26;;;;;;;17.48;4.90;;;13.10;99.90;;;;;;4957338;28;20034;-59
2022/10/17 00:48:55;;;;;;;19.30;5.20;;;13.10;99.90;;;;;;4953769;28;20613;-59
2022/10/17 00:51:30;;;;;;;17.65;5.50;;;13.20;99.90;;;;;;4955593;28;20047;-58
2022/10/17 00:53:56;;;;;;;17.90;5.28;;;13.10;99.90;;;;;;4956208;28;20469;-59
2022/10/17 00:56:22;;;;;;;14.30;5.30;;;13.10;99.90;;;;;;4955460;28;20055;-59
2022/10/17 00:58:49;;;;;;;15.07;4.93;;;13.10;99.90;;;;;;4955482;28;20454;-59
2022/10/17 01:01:15;;;;;;;13.52;4.82;;;13.10;99.90;;;;;;4952852;28;20039;-59
2022/10/17 01:03:40;;;;;;;10.63;4.22;;;13.10;99.90;;;;;;4956261;28;20050;-59
2022/10/17 01:06:06;;;;;;;12.77;4.72;;;13.10;99.90;;;;;;4950915;28;20044;-59
2022/10/17 01:08:32;;;;;;;13.55;4.32;;;13.20;99.90;;;;;;4955796;28;20117;-59
2022/10/17 01:11:20;;;;;;;12.13;4.32;;;13.20;99.90;;;;;;4957480;28;20443;-59
2022/10/17 01:14:05;;;;;;;10.75;3.75;;;13.20;99.90;;;;;;4957854;28;20505;-59
2022/10/17 01:16:36;;;;;;;12.38;4.13;;;13.20;99.90;;;;;;4956101;28;20090;-60
2022/10/17 01:19:05;;;;;;;9.68;4.20;;;13.20;99.90;;;;;;4959752;28;20108;-60
2022/10/17 01:21:43;;;;;;;9.90;3.97;;;13.20;99.90;;;;;;4958773;28;20062;-59
2022/10/17 01:24:39;;;;;;;11.98;4.80;;;13.20;99.90;;;;;;4956521;28;20122;-59
2022/10/17 01:27:40;;;;;;;19.35;4.68;;;13.10;99.90;;;;;;4957052;28;20054;-59
2022/10/17 01:30:37;;;;;;;13.68;4.80;;;13.10;99.90;;;;;;4905610;29;20094;-58
2022/10/17 01:33:13;;;;;;;11.05;4.55;;;13.20;99.90;;;;;;4956031;28;20652;-59
2022/10/17 01:36:00;;;;;;;12.57;5.38;;;13.20;99.90;;;;;;4955849;28;20106;-59
2022/10/17 01:38:48;;;;;;;9.75;5.07;;;13.20;99.90;;;;;;4952112;28;20106;-59
2022/10/17 01:41:41;;;;;;;14.13;5.55;;;13.20;99.90;;;;;;4960175;28;20036;-59
2022/10/17 01:44:20;;;;;;;14.23;4.97;;;13.20;99.90;;;;;;4946176;28;20047;-59
2022/10/17 01:46:50;;;;;;;13.18;5.00;;;13.20;99.90;;;;;;4961817;28;20512;-59
2022/10/17 01:49:20;;;;;;;9.95;4.82;;;13.30;99.90;;;;;;4957307;28;20134;-59
2022/10/17 01:51:55;;;;;;;12.45;4.85;;;13.30;99.90;;;;;;4957418;28;20055;-59
2022/10/17 01:54:29;;;;;;;9.80;4.45;;;13.30;99.90;;;;;;4956761;28;20046;-59
2022/10/17 01:56:59;;;;;;;14.02;4.57;;;13.30;99.90;;;;;;4957308;28;20046;-59
2022/10/17 01:59:32;;;;;;;10.88;4.63;;;13.30;99.90;;;;;;4954813;28;20059;-60
2022/10/17 02:01:58;;;;;;;;;;;13.40;99.90;;;;;;4957413;28;20053;-60
2022/10/17 02:04:25;;;;;;;10.65;4.18;;;13.40;99.90;;;;;;4954266;28;19925;-59
2022/10/17 02:06:51;;;;;;;7.53;4.50;;;13.40;99.90;;;;;;4955630;28;20054;-59
2022/10/17 02:09:25;;;;;;;9.80;4.60;;;13.40;99.90;;;;;;4955617;28;20395;-59
2022/10/17 02:12:11;;;;;;;14.05;4.88;;;13.40;99.90;;;;;;4956101;28;20086;-57
2022/10/17 02:14:52;;;;;;;13.15;4.75;;;13.40;99.90;;;;;;4923608;28;20066;-59
2022/10/17 02:17:30;;;;;;;9.93;4.57;;;13.40;99.90;;;;;;4954582;28;20077;-59
2022/10/17 02:20:29;;;;;;;10.32;4.70;;;13.40;99.90;;;;;;4956476;28;20397;-59
2022/10/17 02:23:10;;;;;;;15.02;4.70;;;13.40;99.90;;;;;;4948929;28;20157;-59
2022/10/17 02:25:40;;;;;;;11.95;4.85;;;13.40;99.90;;;;;;4955183;28;20043;-60
2022/10/17 02:28:28;;;;;;;13.63;5.28;;;13.40;99.90;;;;;;4937711;28;20456;-59
2022/10/17 02:30:57;;;;;;;9.43;4.95;;;13.40;99.90;;;;;;4954924;28;20050;-59
2022/10/17 02:33:34;;;;;;;9.63;5.00;;;13.40;99.90;;;;;;4956412;28;20117;-59
2022/10/17 02:36:07;;;;;;;11.15;4.95;;;13.40;99.90;;;;;;4952549;28;20405;-59
2022/10/17 02:38:33;;;;;;;;;;;13.30;99.90;;;;;;4956180;28;20446;-59
2022/10/17 02:41:00;;;;;;;10.45;4.70;;;13.30;99.90;;;;;;4954985;28;19922;-59
2022/10/17 02:43:27;;;;;;;12.63;5.55;;;13.30;99.90;;;;;;4957276;28;20065;-59
2022/10/17 02:45:54;;;;;;;8.07;4.75;;;13.30;99.90;;;;;;4953091;28;20504;-59
2022/10/17 02:48:33;;;;;;;13.13;5.47;;;13.30;99.90;;;;;;4950210;28;20047;-59
2022/10/17 02:50:59;;;;;;;9.63;5.40;;;13.30;99.90;;;;;;4955578;28;20823;-59
2022/10/17 02:53:33;;;;;;;12.73;5.57;;;13.20;99.90;;;;;;4954439;28;20496;-59
2022/10/17 02:56:07;;;;;;;11.38;5.30;;;13.20;99.90;;;;;;4956097;28;20444;-59
2022/10/17 02:58:35;;;;;;;12.48;5.95;;;13.20;99.90;;;;;;4953560;28;20524;-60
2022/10/17 03:01:03;;;;;;;11.90;5.30;;;13.30;99.90;;;;;;4956596;28;20078;-59
2022/10/17 03:03:31;;;;;;;15.25;6.30;;;13.20;99.90;;;;;;4952385;28;20128;-58
2022/10/17 03:05:57;;;;;;;13.10;5.97;;;13.20;99.90;;;;;;4956044;28;20047;-59
2022/10/17 03:08:23;;;;;;;12.55;6.15;;;13.20;99.90;;;;;;4952960;28;20050;-59
2022/10/17 03:10:49;;;;;;;10.50;5.38;;;13.20;99.90;;;;;;4953681;28;20473;-59
2022/10/17 03:13:16;;;;;;;12.40;6.15;;;13.20;99.90;;;;;;4953276;28;20101;-59
2022/10/17 03:15:42;;;;;;;12.98;5.60;;;13.20;99.90;;;;;;4951255;28;20559;-58
2022/10/17 03:18:08;;;;;;;10.20;6.20;;;13.20;99.90;;;;;;4954261;28;20402;-59
2022/10/17 03:20:34;;;;;;;11.75;5.82;;;13.20;99.90;;;;;;4938634;28;20400;-59
2022/10/17 03:23:00;;;;;;;10.23;5.82;;;13.20;99.90;;;;;;4949437;28;20049;-60
2022/10/17 03:25:26;;;;;;;12.65;6.18;;;13.20;99.90;;;;;;4951813;28;20914;-59
2022/10/17 03:27:52;;;;;;;9.63;6.63;;;13.20;99.90;;;;;;4950494;28;20090;-58
2022/10/17 03:30:19;;;;;;;14.55;6.00;;;13.20;99.90;;;;;;4953337;28;20086;-59
2022/10/17 03:32:44;;;;;;;8.85;6.10;;;13.20;99.90;;;;;;4951703;28;20101;-59
2022/10/17 03:35:10;;;;;;;9.70;6.80;;;13.20;99.90;;;;;;4954368;28;20142;-58
2022/10/17 03:37:36;;;;;;;10.77;6.78;;;13.20;99.90;;;;;;4952672;28;20043;-59
2022/10/17 03:40:02;;;;;;;9.18;7.10;;;13.20;99.90;;;;;;4953954;28;20090;-59
2022/10/17 03:42:28;;;;;;;8.93;7.00;;;13.20;99.90;;;;;;4951487;28;20098;-59
2022/10/17 03:44:53;;;;;;;11.02;6.80;;;13.20;99.90;;;;;;4951434;28;20478;-60
2022/10/17 03:47:20;;;;;;;15.07;7.03;;;13.20;99.90;;;;;;4952308;28;20521;-59
2022/10/17 03:49:45;;;;;;;10.55;7.00;;;13.20;99.90;;;;;;4952028;28;20047;-59
2022/10/17 03:52:12;;;;;;;15.57;7.60;;;13.20;99.90;;;;;;4948444;28;20074;-58
2022/10/17 03:54:38;;;;;;;12.15;7.43;;;13.20;99.90;;;;;;4953097;28;20051;-59
2022/10/17 03:57:04;;;;;;;12.75;8.18;;;13.20;99.90;;;;;;4952798;28;20083;-58
2022/10/17 03:59:30;;;;;;;12.30;7.50;;;13.20;99.90;;;;;;4952941;28;20672;-59
2022/10/17 04:01:56;;;;;;;11.43;7.72;;;13.20;99.90;;;;;;4953723;28;20077;-59
2022/10/17 04:04:21;;;;;;;10.35;7.47;;;13.20;99.90;;;;;;4952579;28;20046;-59
2022/10/17 04:06:47;;;;;;;13.02;8.10;;;13.20;99.90;;;;;;4952555;28;20051;-59
2022/10/17 04:09:13;;;;;;;11.95;8.02;;;13.20;99.90;;;;;;4952865;28;20546;-59
2022/10/17 04:11:39;;;;;;;12.52;8.18;;;13.20;99.90;;;;;;4953058;28;20053;-59
2022/10/17 04:14:05;;;;;;;12.45;8.18;;;13.20;99.90;;;;;;4951197;28;20571;-59
2022/10/17 04:16:30;;;;;;;13.60;8.18;;;13.20;99.90;;;;;;4950114;28;20043;-58
2022/10/17 04:18:58;;;;;;;11.55;8.35;;;13.20;99.90;;;;;;4955143;28;20109;-60
2022/10/17 04:21:27;;;;;;;11.65;8.85;;;13.20;99.90;;;;;;4954070;28;20357;-60
2022/10/17 04:23:55;;;;;;;16.08;9.27;;;13.20;99.90;;;;;;4952824;28;20405;-59
2022/10/17 04:26:20;;;;;;;13.38;9.40;;;13.20;99.90;;;;;;4954284;28;20045;-59
2022/10/17 04:28:46;;;;;;;12.85;8.77;;;13.20;99.90;;;;;;4953549;28;20051;-59
2022/10/17 04:31:13;;;;;;;12.15;9.10;;;13.20;99.90;;;;;;4954117;28;20058;-60
2022/10/17 04:33:40;;;;;;;10.52;9.27;;;13.20;99.90;;;;;;4955095;28;20055;-59
2022/10/17 04:36:11;;;;;;;11.45;9.40;;;13.30;99.90;;;;;;4953278;28;20035;-59
2022/10/17 04:38:37;;;;;;;16.42;9.98;;;13.30;99.90;;;;;;4955274;28;20042;-58
2022/10/17 04:41:05;;;;;;;11.95;9.75;;;13.30;99.90;;;;;;4956546;28;20071;-59
2022/10/17 04:43:33;;;;;;;12.32;9.45;;;13.30;99.90;;;;;;4957992;28;20078;-60
2022/10/17 04:46:00;;;;;;;15.45;9.57;;;13.40;99.90;;;;;;4956924;28;20070;-59
2022/10/17 04:48:27;;;;;;;15.88;10.23;;;13.40;99.90;;;;;;4955650;28;20376;-59
2022/10/17 04:51:05;;;;;;;11.02;9.82;;;13.40;99.90;;;;;;4956759;28;20043;-59
2022/10/17 04:53:33;;;;;;;14.57;10.07;;;13.50;99.90;;;;;;4953783;28;20051;-59
2022/10/17 04:55:59;;;;;;;16.00;10.77;;;13.50;99.90;;;;;;4957653;28;20055;-59
2022/10/17 04:58:28;;;;;;;13.65;10.25;;;13.50;99.90;;;;;;4954797;28;20498;-59
2022/10/17 05:00:54;;;;;;;11.70;10.13;;;13.60;99.90;;;;;;4957553;28;20078;-59
2022/10/17 05:03:20;;;;;;;16.50;10.52;;;13.60;99.90;;;;;;4955860;28;20032;-59
2022/10/17 05:05:46;;;;;;;15.32;10.80;;;13.60;99.90;;;;;;4953427;28;20163;-59
2022/10/17 05:08:12;;;;;;;16.35;11.00;;;13.60;99.90;;;;;;4961480;28;20174;-59
2022/10/17 05:10:40;;;;;;;14.63;10.23;;;13.70;99.90;;;;;;4955475;28;20134;-59
2022/10/17 05:13:06;;;;;;;15.20;11.13;;;13.70;99.90;;;;;;4955579;28;20046;-59
2022/10/17 05:15:32;;;;;;;15.07;10.68;;;13.70;99.90;;;;;;4956845;28;20120;-59
2022/10/17 05:17:58;;;;;;;16.17;10.98;;;13.80;99.90;;;;;;4961384;28;20406;-59
2022/10/17 05:20:23;;;;;;;14.43;11.52;;;13.80;99.90;;;;;;4952587;28;20070;-59
2022/10/17 05:22:49;;;;;;;13.55;11.82;;;13.80;99.90;;;;;;4954236;28;20078;-59
2022/10/17 05:25:15;;;;;;;15.15;10.40;;;13.80;99.90;;;;;;4954720;28;20043;-57
2022/10/17 05:27:41;;;;;;;12.48;10.55;;;13.80;99.90;;;;;;4952643;28;20058;-59
2022/10/17 05:30:07;;;;;;;16.98;11.05;;;13.80;99.90;;;;;;4954508;28;20468;-59
2022/10/17 05:32:33;;;;;;;14.82;11.57;;;13.80;99.90;;;;;;4952262;28;20458;-59
2022/10/17 05:34:59;;;;;;;16.25;11.50;;;13.90;99.90;;;;;;4952350;28;20109;-59
2022/10/17 05:37:25;;;;;;;13.63;11.18;;;13.80;99.90;;;;;;4953938;28;20118;-58
2022/10/17 05:39:50;;;;;;;16.75;12.55;;;13.90;99.90;;;;;;4954233;28;20090;-59
2022/10/17 05:42:16;;;;;;;18.00;11.93;;;13.90;99.90;;;;;;4954473;28;20051;-59
2022/10/17 05:44:42;;;;;;;15.95;12.48;;;13.90;99.90;;;;;;4953097;28;20138;-59
2022/10/17 05:47:08;;;;;;;19.08;12.90;;;13.90;99.90;;;;;;4955894;28;20043;-58
2022/10/17 05:49:34;;;;;;;14.80;12.18;;;14.00;99.90;;;;;;4955011;28;20140;-59
2022/10/17 05:52:00;;;;;;;20.08;12.18;;;14.00;99.90;;;;;;4957334;28;20086;-59
2022/10/17 05:54:26;;;;;;;16.42;12.77;;;14.00;99.90;;;;;;4954453;28;20074;-59
2022/10/17 05:56:53;;;;;;;16.67;12.80;;;14.10;99.90;;;;;;4952517;28;20047;-59
2022/10/17 05:59:20;;;;;;;18.10;12.52;;;14.10;99.90;;;;;;4953368;28;20161;-59
2022/10/17 06:01:46;;;;;;;16.75;12.02;;;14.10;99.90;;;;;;4955452;28;20051;-59
2022/10/17 06:04:12;;;;;;;19.23;12.48;;;14.10;99.90;;;;;;4956616;28;20097;-59
2022/10/17 06:06:39;;;;;;;16.92;12.52;;;14.20;99.90;;;;;;4952683;28;20409;-59
2022/10/17 06:09:06;;;;;;;17.77;12.98;;;14.10;99.90;;;;;;4954266;28;20125;-60
2022/10/17 06:11:33;;;;;;;17.35;12.88;;;14.10;99.90;;;;;;4970979;28;20050;-59
2022/10/17 06:13:59;;;;;;;17.05;13.48;;;14.20;99.90;;;;;;4953680;28;20050;-60
2022/10/17 06:16:25;;;;;;;17.33;13.07;;;14.10;99.90;;;;;;4956960;28;20039;-59
2022/10/17 06:18:50;;;;;;;23.15;12.70;;;14.10;99.90;;;;;;4955284;28;20568;-59
2022/10/17 06:21:24;;;;;;;18.70;13.52;;;14.20;99.90;;;;;;4966452;28;20043;-59
2022/10/17 06:23:51;;;;;;;18.15;12.85;;;14.20;99.90;;;;;;4960839;28;20035;-59
2022/10/17 06:26:17;;;;;;;21.83;13.40;;;14.20;99.90;;;;;;4955309;28;20046;-59
2022/10/17 06:28:43;;;;;;;15.57;12.57;;;14.30;99.90;;;;;;4953184;28;20429;-59
2022/10/17 06:31:11;;;;;;;21.08;13.77;;;14.30;99.90;;;;;;4954768;28;20057;-60
2022/10/17 06:33:38;;;;;;;16.75;13.48;;;14.30;99.90;;;;;;4953728;28;20055;-59
2022/10/17 06:36:06;;;;;;;20.17;13.82;;;14.30;99.90;;;;;;4956010;28;20039;-59
2022/10/17 06:38:33;;;;;;;21.05;13.45;;;14.30;99.90;;;;;;4950853;28;20043;-59
2022/10/17 06:41:07;;;;;;;17.98;13.77;;;14.40;99.90;;;;;;4953327;28;20047;-59
2022/10/17 06:43:37;;;;;;;21.00;14.20;;;14.40;99.90;;;;;;4961291;28;20054;-60
2022/10/17 06:46:04;;;;;;;16.50;13.07;;;14.40;99.90;;;;;;4960728;28;20458;-59
2022/10/17 06:48:30;;;;;;;20.10;13.40;;;14.50;99.90;;;;;;4952852;28;20066;-58
2022/10/17 06:51:03;;;;;;;17.95;13.73;;;14.50;99.90;;;;;;4949940;28;20054;-59
2022/10/17 06:53:31;;;;;;;16.48;13.00;;;14.60;99.90;;;;;;4950235;28;20077;-60
2022/10/17 06:56:01;;;;;;;20.77;13.35;;;14.60;99.90;;;;;;4951925;28;20504;-59
2022/10/17 06:58:29;;;;;;;18.00;13.20;;;14.60;99.90;;;;;;4951906;28;20134;-59
2022/10/17 07:01:09;;;;;;;24.17;13.75;;;14.60;99.90;;;;;;4961088;28;20047;-58
2022/10/17 07:03:36;;;;;;;19.98;12.88;;;14.70;99.90;;;;;;4953293;28;20078;-59
2022/10/17 07:06:02;;;;;;;20.40;12.90;;;14.70;99.90;;;;;;4952619;28;20050;-59
2022/10/17 07:08:28;;;;;;;18.30;13.00;;;14.70;99.90;;;;;;4951879;28;20229;-58
2022/10/17 07:10:54;;;;;;;16.92;12.77;;;14.70;99.90;;;;;;4952467;28;20066;-59
2022/10/17 07:13:20;;;;;;;18.08;13.18;;;14.70;99.90;;;;;;4952463;28;20050;-60
2022/10/17 07:15:46;;;;;;;19.02;12.93;;;14.70;99.90;;;;;;4950753;28;20042;-59
2022/10/17 07:18:12;;;;;;;18.88;12.82;;;14.70;99.90;;;;;;4951159;28;20074;-60
2022/10/17 07:20:39;;;;;;;21.98;12.90;;;14.80;99.90;;;;;;4954660;28;20079;-59
2022/10/17 07:23:05;;;;;;;18.52;13.35;;;14.80;99.90;;;;;;4952577;28;20054;-60
2022/10/17 07:25:31;;;;;;;15.98;12.93;;;14.80;99.90;;;;;;4953803;28;20170;-59
2022/10/17 07:27:57;;;;;;;23.67;12.75;;;14.90;99.90;;;;;;4953892;28;20130;-59
2022/10/17 07:30:23;;;;;;;17.83;12.93;;;14.90;99.90;;;;;;4953718;28;20121;-59
2022/10/17 07:32:52;;;;;;;21.23;13.35;;;15.00;99.90;;;;;;4952564;28;20061;-59
2022/10/17 07:35:18;;;;;;;16.80;12.13;;;15.10;99.90;;;;;;4952798;28;20054;-59
2022/10/17 07:37:43;;;;;;;17.02;12.30;;;15.10;99.90;;;;;;4954084;28;20043;-59
2022/10/17 07:40:10;;;;;;;15.75;12.48;;;15.20;99.90;;;;;;4953024;28;20382;-59
2022/10/17 07:42:36;;;;;;;18.77;12.18;;;15.20;99.90;;;;;;4950761;28;20043;-59
2022/10/17 07:45:03;;;;;;;16.95;12.10;;;15.30;99.90;;;;;;4955443;28;20142;-58
2022/10/17 07:47:29;;;;;;;21.27;12.13;;;15.30;99.90;;;;;;4948538;28;20596;-59
2022/10/17 07:49:56;;;;;;;17.88;12.10;;;15.40;99.90;;;;;;4952781;28;20050;-59
2022/10/17 07:52:22;;;;;;;14.77;12.00;;;15.40;99.90;;;;;;4953634;28;20612;-60
2022/10/17 07:54:48;;;;;;;21.63;11.55;;;15.50;99.90;;;;;;4960243;28;20044;-60
2022/10/17 07:57:13;;;;;;;15.43;11.63;;;15.50;99.90;;;;;;4952727;28;20449;-59
2022/10/17 07:59:39;;;;;;;18.35;11.68;;;15.50;99.90;;;;;;4943583;28;20084;-59
2022/10/17 08:02:07;;;;;;;15.20;11.10;;;15.60;99.90;;;;;;4952384;28;20039;-60
2022/10/17 08:04:33;;;;;;;17.73;10.82;;;15.60;99.90;;;;;;4955514;28;20075;-60
2022/10/17 08:06:59;;;;;;;15.65;10.88;;;15.70;99.90;;;;;;4954440;28;20414;-60
2022/10/17 08:09:25;;;;;;;13.65;11.23;;;15.80;99.90;;;;;;4953950;28;20501;-59
2022/10/17 08:11:51;;;;;;;17.13;10.65;;;15.90;99.90;;;;;;4955809;28;20062;-59
2022/10/17 08:14:17;;;;;;;15.13;10.98;;;16.00;99.90;;;;;;4957190;28;20553;-59
2022/10/17 08:16:43;;;;;;;14.05;10.18;;;16.10;99.90;;;;;;4956870;28;20765;-59
2022/10/17 08:19:10;;;;;;;18.70;10.23;;;16.20;99.90;;;;;;4957872;28;20055;-59
2022/10/17 08:21:36;;;;;;;12.43;10.00;;;16.20;99.90;;;;;;4957994;28;20043;-60
2022/10/17 08:24:03;;;;;;;16.70;10.77;;;16.30;99.90;;;;;;4953849;28;20046;-59
2022/10/17 08:26:29;;;;;;;16.58;9.60;;;16.30;99.90;;;;;;4956936;28;20043;-60
2022/10/17 08:28:55;;;;;;;15.02;9.82;;;16.40;99.90;;;;;;4955654;28;20093;-60
2022/10/17 08:31:21;;;;;;;19.60;9.82;;;16.40;99.90;;;;;;4955574;28;20377;-60
2022/10/17 08:33:48;;;;;;;11.00;9.27;;;16.50;99.90;;;;;;4958826;28;20496;-60
2022/10/17 08:36:17;;;;;;;16.08;9.52;;;16.50;99.90;;;;;;4957246;28;20597;-59
2022/10/17 08:38:44;;;;;;;17.90;9.30;;;16.60;99.90;;;;;;4955527;28;20413;-59
2022/10/17 08:41:13;;;;;;;12.88;9.10;;;16.60;99.90;;;;;;4956533;28;20065;-60
2022/10/17 08:43:54;;;;;;;11.00;8.90;;;16.70;99.90;;;;;;4933662;28;20047;-60
2022/10/17 08:46:20;;;;;;;14.57;8.45;;;16.70;99.90;;;;;;4956154;28;20039;-60
2022/10/17 08:48:48;;;;;;;10.52;8.82;;;16.80;99.90;;;;;;4957049;28;20481;-59
2022/10/17 08:51:33;;;;;;;16.33;9.00;;;16.80;99.90;;;;;;4953813;28;20054;-60
2022/10/17 08:54:23;;;;;;;15.18;8.70;;;16.90;99.90;;;;;;4955207;28;20050;-60
2022/10/17 08:56:51;;;;;;;10.80;8.65;;;16.90;99.90;;;;;;4947098;28;20063;-59
2022/10/17 08:59:26;;;;;;;12.48;8.52;;;17.00;99.90;;;;;;4956527;28;20058;-59
2022/10/17 09:02:20;;;;;;;13.27;8.60;;;17.00;99.90;;;;;;4951240;28;20047;-59
2022/10/17 09:05:00;;;;;;;12.05;8.88;;;17.10;99.90;;;;;;4957207;28;20042;-60
2022/10/17 09:08:03;;;;;;;14.23;8.65;;;17.10;99.90;;;;;;4957211;28;20596;-60
2022/10/17 09:10:29;;;;;;;;;;;17.20;99.90;;;;;;4956545;28;20045;-60
2022/10/17 09:13:13;;;;;;;13.48;9.52;;;17.20;99.90;;;;;;4958170;28;20002;-60
2022/10/17 09:15:51;;;;;;;13.40;9.60;;;17.20;99.90;;;;;;4956864;28;20482;-60
2022/10/17 09:18:21;;;;;;;13.90;8.30;;;17.20;99.90;;;;;;4957325;28;20049;-59
2022/10/17 09:20:52;;;;;;;16.17;9.07;;;17.20;99.90;;;;;;4957709;28;20043;-60
2022/10/17 09:23:20;;;;;;;12.20;8.20;;;17.30;99.90;;;;;;4957023;28;20409;-60
2022/10/17 09:25:54;;;;;;;11.30;8.45;;;17.30;99.90;;;;;;4955785;28;20140;-60
2022/10/17 09:28:31;;;;;;;15.77;8.57;;;17.30;99.90;;;;;;4954352;28;20055;-59
2022/10/17 09:31:16;;;;;;;14.88;9.15;;;17.30;99.90;;;;;;4957374;28;20482;-60
2022/10/17 09:33:45;;;;;;;10.52;7.53;;;17.40;99.90;;;;;;4957866;28;20049;-59
2022/10/17 09:36:24;;;;;;;11.43;8.23;;;17.30;99.90;;;;;;4956061;28;20165;-59
2022/10/17 09:38:56;;;;;;;13.45;8.52;;;17.40;99.90;;;;;;4954783;28;20351;-58
2022/10/17 09:41:28;;;;;;;12.35;8.45;;;17.30;99.90;;;;;;4956786;28;20054;-60
2022/10/17 09:43:58;;;;;;;10.70;8.45;;;17.30;99.90;;;;;;4956343;28;20086;-59
2022/10/17 09:46:36;;;;;;;15.80;8.90;;;17.30;99.90;;;;;;4956819;28;20373;-60
2022/10/17 09:49:30;;;;;;;16.80;8.48;;;17.30;99.90;;;;;;4955350;28;20457;-59
2022/10/17 09:51:56;;;;;;;10.63;8.00;;;17.30;99.90;;;;;;4957840;28;20039;-59
2022/10/17 09:54:27;;;;;;;14.98;8.32;;;17.30;99.90;;;;;;4953008;28;20465;-59
2022/10/17 09:57:03;;;;;;;13.77;8.75;;;17.30;99.90;;;;;;4955552;28;20157;-60
2022/10/17 09:59:35;;;;;;;14.80;8.75;;;17.30;99.90;;;;;;4955508;28;20497;-58
2022/10/17 10:02:12;;;;;;;10.73;9.40;;;17.20;99.90;;;;;;4956251;28;20202;-60
2022/10/17 10:04:52;;;;;;;13.88;9.35;;;17.20;99.90;;;;;;4956860;28;20374;-59
2022/10/17 10:07:19;;;;;;;15.32;9.07;;;17.20;99.90;;;;;;4958850;28;20482;-59
2022/10/17 10:09:47;;;;;;;14.05;9.85;;;17.10;99.90;;;;;;4955886;28;20093;-59
2022/10/17 10:12:25;;;;;;;16.02;10.23;;;17.10;99.90;;;;;;4955911;28;20050;-59
2022/10/17 10:14:52;;;;;;;13.63;9.65;;;17.10;99.90;;;;;;4931441;28;20058;-59
2022/10/17 10:17:32;;;;;;;13.40;9.90;;;17.00;99.90;;;;;;4957312;28;20039;-59
2022/10/17 10:19:58;;;;;;;16.02;10.18;;;17.00;99.90;;;;;;4952821;28;20105;-59
2022/10/17 10:22:24;;;;;;;14.63;10.27;;;17.00;99.90;;;;;;4954590;28;20039;-59
2022/10/17 10:25:14;;;;;;;13.40;9.95;;;17.00;99.90;;;;;;4956484;28;20501;-59
2022/10/17 10:27:43;;;;;;;15.65;10.15;;;16.90;99.90;;;;;;4954526;28;20038;-59
2022/10/17 10:30:35;;;;;;;13.10;10.15;;;16.90;99.90;;;;;;4954077;28;20044;-59
2022/10/17 10:33:01;;;;;;;13.13;10.13;;;16.90;99.90;;;;;;4953931;28;20569;-59
2022/10/17 10:35:33;;;;;;;14.15;10.48;;;16.90;99.90;;;;;;4956161;28;20049;-60
2022/10/17 10:38:02;;;;;;;13.98;10.27;;;16.90;99.90;;;;;;4954764;28;20043;-59
2022/10/17 10:40:33;;;;;;;12.20;9.70;;;16.90;99.90;;;;;;4951797;28;20059;-58
2022/10/17 10:43:00;;;;;;;15.02;10.23;;;16.80;99.90;;;;;;4952892;28;20086;-59
2022/10/17 10:45:39;;;;;;;14.98;10.27;;;16.90;99.90;;;;;;4968762;28;20035;-59
2022/10/17 10:48:33;;;;;;;14.48;10.00;;;16.90;99.90;;;;;;4952803;28;20053;-59
2022/10/17 10:51:18;;;;;;;18.60;10.13;;;16.90;99.90;;;;;;4955132;28;20508;-57
2022/10/17 10:54:04;;;;;;;14.38;10.50;;;16.90;99.90;;;;;;4953733;28;20059;-59
2022/10/17 10:56:43;;;;;;;16.10;10.15;;;16.90;99.90;;;;;;4953561;28;20055;-59
2022/10/17 10:59:19;;;;;;;14.88;10.07;;;16.90;99.90;;;;;;4952616;28;20063;-59
2022/10/17 11:02:01;;;;;;;15.23;10.23;;;16.90;99.90;;;;;;4952251;28;20548;-59
2022/10/17 11:04:26;;;;;;;15.07;9.93;;;16.90;99.90;;;;;;4950700;28;20043;-59
2022/10/17 11:07:00;;;;;;;16.60;9.80;;;16.90;99.90;;;;;;4951129;28;20051;-59
2022/10/17 11:09:50;;;;;;;13.88;10.52;;;16.90;99.90;;;;;;4948194;28;20903;-59
2022/10/17 11:12:21;;;;;;;13.32;10.07;;;16.90;99.90;;;;;;4949457;28;20047;-59
2022/10/17 11:15:00;;;;;;;14.90;9.25;;;16.90;99.90;;;;;;4953200;28;20086;-60
2022/10/17 11:17:41;;;;;;;15.40;10.23;;;17.00;99.90;;;;;;4950657;28;20501;-59
2022/10/17 11:20:18;;;;;;;16.30;10.13;;;17.00;99.90;;;;;;4953304;28;20043;-59
2022/10/17 11:22:51;;;;;;;16.63;10.05;;;17.00;99.90;;;;;;4952771;28;20050;-59
2022/10/17 11:25:39;;;;;;;14.05;10.07;;;17.00;99.90;;;;;;4953030;28;20089;-60
2022/10/17 11:28:14;;;;;;;15.68;10.10;;;17.10;99.90;;;;;;4957861;28;20042;-58
2022/10/17 11:31:12;;;;;;;17.05;9.80;;;17.00;99.90;;;;;;4953455;28;20050;-59
2022/10/17 11:33:59;;;;;;;13.60;9.73;;;17.10;99.90;;;;;;4954394;28;20540;-59
2022/10/17 11:36:30;;;;;;;13.35;9.43;;;17.10;99.90;;;;;;4952215;28;20804;-58
2022/10/17 11:39:01;;;;;;;14.30;9.05;;;17.10;99.90;;;;;;4954660;28;20116;-59
2022/10/17 11:41:44;;;;;;;12.15;8.77;;;17.10;99.90;;;;;;4951818;28;20441;-59
2022/10/17 11:44:30;;;;;;;11.80;8.35;;;17.10;99.90;;;;;;4966960;28;20047;-59
2022/10/17 11:47:13;;;;;;;11.60;8.88;;;17.10;99.90;;;;;;4959816;28;20608;-59
2022/10/17 11:49:52;;;;;;;12.45;8.27;;;17.10;99.90;;;;;;4950243;28;20039;-58
2022/10/17 11:52:42;;;;;;;12.52;7.97;;;17.00;99.90;;;;;;4951785;28;20501;-59
2022/10/17 11:55:26;;;;;;;11.50;8.60;;;17.00;99.90;;;;;;4951071;28;20129;-59
2022/10/17 11:58:11;;;;;;;12.20;7.88;;;17.00;99.90;;;;;;4948823;28;20051;-57
2022/10/17 12:01:19;;;;;;;12.73;7.72;;;17.00;99.90;;;;;;4952423;28;20059;-59
2022/10/17 12:04:09;;;;;;;11.55;7.15;;;17.00;99.90;;;;;;4931579;28;20049;-58
2022/10/17 12:06:43;;;;;;;9.50;7.00;;;17.00;99.90;;;;;;4953453;28;20481;-59
2022/10/17 12:09:50;;;;;;;7.57;6.63;;;17.10;99.90;;;;;;4951066;28;20392;-59
2022/10/17 12:12:34;;;;;;;9.50;5.50;;;17.10;99.90;;;;;;4891587;28;20163;-59
2022/10/17 12:15:12;;;;;;;9.98;6.05;;;17.20;99.90;;;;;;4950222;28;20486;-58
2022/10/17 12:17:41;;;;;;;8.50;5.55;;;17.20;99.90;;;;;;4950626;28;20079;-59
2022/10/17 12:20:19;;;;;;;5.95;5.35;;;17.20;99.90;;;;;;4953036;28;20366;-58
2022/10/17 12:23:10;;;;;;;8.75;5.68;;;17.20;99.90;;;;;;4950762;28;20544;-59
2022/10/17 12:25:54;;;;;;;7.25;5.35;;;17.20;99.90;;;;;;4953598;28;20049;-59
2022/10/17 12:28:23;;;;;;;5.90;4.93;;;17.20;99.90;;;;;;4954990;28;20047;-58
2022/10/17 12:31:01;;;;;;;7.50;5.25;;;17.30;99.90;;;;;;4952693;28;20061;-59
2022/10/17 12:33:46;;;;;;;7.30;5.43;;;17.30;99.90;;;;;;4951670;28;20062;-58
2022/10/17 12:36:21;;;;;;;8.63;5.22;;;17.30;99.90;;;;;;4951409;28;20046;-59
2022/10/17 12:39:13;;;;;;;9.45;5.68;;;17.40;99.90;;;;;;4951562;28;20411;-59
2022/10/17 12:41:39;;;;;;;8.32;6.00;;;17.30;99.90;;;;;;4951700;28;20043;-59
2022/10/17 12:44:14;;;;;;;7.97;5.82;;;17.30;99.90;;;;;;4951182;28;20121;-58
2022/10/17 12:47:08;;;;;;;7.32;5.85;;;17.30;99.90;;;;;;4952647;28;20565;-59
2022/10/17 12:49:46;;;;;;;8.55;5.50;;;17.30;99.90;;;;;;4954413;28;20134;-59
2022/10/17 12:52:35;;;;;;;9.77;5.03;;;17.30;99.90;;;;;;4950633;28;20061;-58
2022/10/17 12:55:06;;;;;;;7.55;5.30;;;17.20;99.90;;;;;;4965258;28;20086;-59
2022/10/17 12:57:55;;;;;;;6.97;5.15;;;17.20;99.90;;;;;;4952436;28;20174;-59
2022/10/17 13:00:35;;;;;;;8.43;5.05;;;17.20;99.90;;;;;;4952572;28;20153;-58